地図

経路データ

SID SEASON NUMBER BASIN SUBBASIN NAME ISO_TIME NATURE LAT LON WMO_WIND WMO_PRES WMO_AGENCY TRACK_TYPE DIST2LAND LANDFALL IFLAG USA_AGENCY USA_ATCF_ID USA_LAT USA_LON USA_RECORD USA_STATUS USA_WIND USA_PRES USA_SSHS USA_R34_NE USA_R34_SE USA_R34_SW USA_R34_NW USA_R50_NE USA_R50_SE USA_R50_SW USA_R50_NW USA_R64_NE USA_R64_SE USA_R64_SW USA_R64_NW USA_POCI USA_ROCI USA_RMW USA_EYE TOKYO_LAT TOKYO_LON TOKYO_GRADE TOKYO_WIND TOKYO_PRES TOKYO_R50_DIR TOKYO_R50_LONG TOKYO_R50_SHORT TOKYO_R30_DIR TOKYO_R30_LONG TOKYO_R30_SHORT TOKYO_LAND CMA_LAT CMA_LON CMA_CAT CMA_WIND CMA_PRES HKO_LAT HKO_LON HKO_CAT HKO_WIND HKO_PRES NEWDELHI_LAT NEWDELHI_LON NEWDELHI_GRADE NEWDELHI_WIND NEWDELHI_PRES NEWDELHI_CI NEWDELHI_DP NEWDELHI_POCI REUNION_LAT REUNION_LON REUNION_TYPE REUNION_WIND REUNION_PRES REUNION_TNUM REUNION_CI REUNION_RMW REUNION_R34_NE REUNION_R34_SE REUNION_R34_SW REUNION_R34_NW REUNION_R50_NE REUNION_R50_SE REUNION_R50_SW REUNION_R50_NW REUNION_R64_NE REUNION_R64_SE REUNION_R64_SW REUNION_R64_NW BOM_LAT BOM_LON BOM_TYPE BOM_WIND BOM_PRES BOM_TNUM BOM_CI BOM_RMW BOM_R34_NE BOM_R34_SE BOM_R34_SW BOM_R34_NW BOM_R50_NE BOM_R50_SE BOM_R50_SW BOM_R50_NW BOM_R64_NE BOM_R64_SE BOM_R64_SW BOM_R64_NW BOM_ROCI BOM_POCI BOM_EYE BOM_POS_METHOD BOM_PRES_METHOD NADI_LAT NADI_LON NADI_CAT NADI_WIND NADI_PRES WELLINGTON_LAT WELLINGTON_LON WELLINGTON_WIND WELLINGTON_PRES DS824_LAT DS824_LON DS824_STAGE DS824_WIND DS824_PRES TD9636_LAT TD9636_LON TD9636_STAGE TD9636_WIND TD9636_PRES TD9635_LAT TD9635_LON TD9635_WIND TD9635_PRES TD9635_ROCI NEUMANN_LAT NEUMANN_LON NEUMANN_CLASS NEUMANN_WIND NEUMANN_PRES MLC_LAT MLC_LON MLC_CLASS MLC_WIND MLC_PRES USA_GUST BOM_GUST BOM_GUST_PER REUNION_GUST REUNION_GUST_PER USA_SEAHGT USA_SEARAD_NE USA_SEARAD_SE USA_SEARAD_SW USA_SEARAD_NW STORM_SPEED STORM_DIR
1995064S13042 1995 11 SI MM JOSTA 1995-03-04 18:00:00 TS -12.5000 41.5000 main 98 97 O___________O_ jtwc_sh SH161995 -12.5000 41.5000 15 -1 -12.5000 41.5000 TC 15 1 0
1995064S13042 1995 11 SI MM JOSTA 1995-03-04 21:00:00 TS -12.5625 41.4875 main 97 97 P___________P_ SH161995 -12.5625 41.4875 15 -1 -12.5625 41.4875 TC 15 1 0
1995064S13042 1995 11 SI MM JOSTA 1995-03-05 00:00:00 TS -12.6000 41.5000 main 97 97 O___________O_ jtwc_sh SH161995 -12.6000 41.5000 15 -1 -12.6000 41.5000 TC 15 1 123
1995064S13042 1995 11 SI MM JOSTA 1995-03-05 03:00:00 TS -12.6000 41.5500 main 108 108 P___________P_ SH161995 -12.6000 41.5500 15 -1 -12.6000 41.5500 TC 15 4 116
1995064S13042 1995 11 SI MM JOSTA 1995-03-05 06:00:00 TS -12.7778 41.8667 20 1005 reunion main 141 141 O____O______O_ jtwc_sh SH161995 -12.6000 41.6000 15 -1 -14.2000 44.0000 2 20 1005 1.50000 1.50000 -12.6000 41.6000 TC 15 6 123
1995064S13042 1995 11 SI MM JOSTA 1995-03-05 09:00:00 TS -12.9050 42.0250 main 152 152 P____P______P_ SH161995 -12.6500 41.6000 17 -1 -13.9251 43.7248 2 20 1005 -12.6500 41.6000 TC 17 3 129
1995064S13042 1995 11 SI MM JOSTA 1995-03-05 12:00:00 TS -12.9727 42.1182 20 1005 reunion main 164 164 O____O______O_ jtwc_sh SH161995 -12.7000 41.6000 20 -1 -13.7000 43.5000 2 20 1005 1.50000 1.50000 -12.7000 41.6000 TC 20 2 114
1995064S13042 1995 11 SI MM JOSTA 1995-03-05 15:00:00 TS -12.9875 42.2167 main 174 174 P____P______P_ SH161995 -12.7000 41.6500 20 -1 -13.5624 43.3501 2 22 1003 -12.7000 41.6500 TC 20 1 86
1995064S13042 1995 11 SI MM JOSTA 1995-03-05 18:00:00 TS -12.9667 42.2000 24 1002 reunion main 174 164 O____O______O_ jtwc_sh SH161995 -12.7000 41.7000 20 -1 -13.5000 43.2000 2 24 1002 2.00000 2.00000 -12.7000 41.7000 TC 20 1 263
1995064S13042 1995 11 SI MM JOSTA 1995-03-05 21:00:00 TS -13.0000 42.1192 main 164 153 P____P______P_ SH161995 -12.7500 41.7000 20 -1 -13.5000 42.9576 2 24 1001 -12.7500 41.7000 TC 20 2 248
1995064S13042 1995 11 SI MM JOSTA 1995-03-06 00:00:00 TS -13.0333 42.0333 25 1000 reunion main 153 153 O____O______O_ jtwc_sh SH161995 -12.8000 41.7000 20 -1 -13.5000 42.7000 2 25 1000 2.00000 2.00000 -12.8000 41.7000 TC 20 1 268
1995064S13042 1995 11 SI MM JOSTA 1995-03-06 03:00:00 TS -13.0050 41.9925 main 153 153 P____P______P_ SH161995 -12.8000 41.7500 22 -1 -13.4150 42.4775 2 25 1000 -12.8000 41.7500 TC 22 1 313
1995064S13042 1995 11 SI MM JOSTA 1995-03-06 06:00:00 TS -12.9667 41.9667 25 1000 reunion main 153 142 O____O______O_ jtwc_sh SH161995 -12.8000 41.8000 25 -1 -13.3000 42.3000 2 25 1000 2.00000 2.00000 -12.8000 41.8000 TC 25 1 301
1995064S13042 1995 11 SI MM JOSTA 1995-03-06 09:00:00 TS -12.9642 41.9233 main 142 142 P____P______P_ SH161995 -12.8500 41.8000 25 -1 -13.1925 42.1700 2 27 998 -12.8500 41.8000 TC 25 1 270
1995064S13042 1995 11 SI MM JOSTA 1995-03-06 12:00:00 TS -12.9667 41.9000 30 997 reunion main 142 142 O____O______O_ jtwc_sh SH161995 -12.9000 41.8000 25 -1 -13.1000 42.1000 2 30 997 2.50000 2.50000 -12.9000 41.8000 TC 25 0 0
1995064S13042 1995 11 SI MM JOSTA 1995-03-06 15:00:00 TS -12.9500 41.9308 main 141 141 P____P______P_ SH161995 -12.9000 41.8500 25 -1 -13.0500 42.0925 2 30 997 -12.9000 41.8500 TC 25 1 65
1995064S13042 1995 11 SI MM JOSTA 1995-03-06 18:00:00 TS -12.9333 41.9667 30 997 reunion main 152 152 O____O______O_ jtwc_sh SH161995 -12.9000 41.9000 25 -1 -13.0000 42.1000 2 30 997 2.50000 2.50000 -12.9000 41.9000 TC 25 0 0
1995064S13042 1995 11 SI MM JOSTA 1995-03-06 21:00:00 TS -12.9333 41.9500 main 152 141 P____P______P_ SH161995 -12.9500 41.9000 27 -1 -12.9000 42.0500 2 30 997 -12.9500 41.9000 TC 27 0 270
1995064S13042 1995 11 SI MM JOSTA 1995-03-07 00:00:00 TS -12.9333 41.9333 30 997 reunion main 141 141 O____O______O_ jtwc_sh SH161995 -13.0000 41.9000 30 -1 -12.8000 42.0000 2 30 997 2.50000 2.50000 -13.0000 41.9000 TC 30 0 0
1995064S13042 1995 11 SI MM JOSTA 1995-03-07 03:00:00 TS -12.9067 41.9617 main 152 152 P____P______P_ SH161995 -13.0000 41.9500 30 -1 -12.7200 41.9850 2 32 994 -13.0000 41.9500 TC 30 1 65
1995064S13042 1995 11 SI MM JOSTA 1995-03-07 06:00:00 TS -12.9000 42.0000 35 992 reunion main 152 152 O____O______O_ jtwc_sh SH161995 -13.0000 42.0000 30 -1 -12.7000 42.0000 3 35 992 3.00000 3.00000 -13.0000 42.0000 TC 30 1 128
1995064S13042 1995 11 SI MM JOSTA 1995-03-07 09:00:00 TS -12.9617 42.0267 main 153 153 P____P______P_ SH161995 -13.0500 42.0000 32 -1 -12.7850 42.0800 3 35 992 -13.0500 42.0000 TC 32 1 167
1995064S13042 1995 11 SI MM JOSTA 1995-03-07 12:00:00 TS -13.0333 42.0333 35 992 reunion main 153 153 O____O______O_ jtwc_sh SH161995 -13.1000 42.0000 35 0 -12.9000 42.1000 3 35 992 3.00000 3.00000 -13.1000 42.0000 TC 35 1 0
1995064S13042 1995 11 SI MM JOSTA 1995-03-07 15:00:00 TS -13.0600 42.0075 main 155 155 P____P______P_ SH161995 -13.1000 42.0500 35 0 -12.9801 41.9226 3 37 990 -13.1000 42.0500 TC 35 1 245
1995064S13042 1995 11 SI MM JOSTA 1995-03-07 18:00:00 TS -13.0667 41.9667 40 988 reunion main 155 144 O____O______O_ jtwc_sh SH161995 -13.1000 42.1000 35 0 -13.0000 41.7000 3 40 988 3.50000 3.50000 -13.1000 42.1000 TC 35 1 271
1995064S13042 1995 11 SI MM JOSTA 1995-03-07 21:00:00 TS -13.0592 41.9208 main 144 144 P____P______P_ SH161995 -13.1425 42.1000 37 0 -12.8925 41.5625 3 40 988 -13.1425 42.1000 TC 37 1 270
1995064S13042 1995 11 SI MM JOSTA 1995-03-08 00:00:00 TS -13.0667 41.9000 40 988 reunion main 144 144 O____O______O_ jtwc_sh SH161995 -13.2000 42.1000 40 0 -12.8000 41.5000 3 40 988 3.50000 3.50000 -13.2000 42.1000 TC 40 1 159
1995064S13042 1995 11 SI MM JOSTA 1995-03-08 03:00:00 TS -13.1233 41.9450 main 144 144 P____P______P_ SH161995 -13.2500 42.1425 40 0 -12.8700 41.5500 3 40 988 -13.2500 42.1425 TC 40 2 145
1995064S13042 1995 11 SI MM JOSTA 1995-03-08 06:00:00 TS -13.2000 42.0000 40 988 reunion main 153 151 O____O______O_ jtwc_sh SH161995 -13.3000 42.2000 40 0 -13.0000 41.6000 3 40 988 3.00000 3.50000 -13.3000 42.2000 TC 40 1 162
1995064S13042 1995 11 SI MM JOSTA 1995-03-08 09:00:00 TS -13.2592 41.9925 main 151 151 P____P______P_ SH161995 -13.3500 42.2500 42 0 -13.0775 41.4776 3 40 988 -13.3500 42.2500 TC 42 1 0
1995064S13042 1995 11 SI MM JOSTA 1995-03-08 12:00:00 TS -13.3333 42.0000 40 988 reunion main 151 151 O____O______O_ jtwc_sh SH161995 -13.4000 42.3000 45 0 -13.2000 41.4000 3 40 988 3.00000 3.50000 -13.4000 42.3000 TC 45 2 156
1995064S13042 1995 11 SI MM JOSTA 1995-03-08 15:00:00 TS -13.4500 42.0874 main 162 162 P____P______P_ SH161995 -13.4500 42.3500 45 0 -13.4501 41.5623 3 37 990 -13.4500 42.3500 TC 45 3 140
1995064S13042 1995 11 SI MM JOSTA 1995-03-08 18:00:00 TS -13.5667 42.2000 35 992 reunion main 173 173 O____O______O_ jtwc_sh SH161995 -13.5000 42.4000 45 0 -13.7000 41.8000 3 35 992 2.50000 3.00000 -13.5000 42.4000 TC 45 3 136
1995064S13042 1995 11 SI MM JOSTA 1995-03-08 21:00:00 TS -13.6458 42.2883 main 183 183 P____P______P_ SH161995 -13.5500 42.4500 47 0 -13.8375 41.9650 3 35 992 -13.5500 42.4500 TC 47 2 130
1995064S13042 1995 11 SI MM JOSTA 1995-03-09 00:00:00 TS -13.7000 42.3667 35 992 reunion main 194 194 O____O______O_ jtwc_sh SH161995 -13.6000 42.5000 50 0 -13.9000 42.1000 3 35 992 2.50000 3.00000 -13.6000 42.5000 TC 50 2 123
1995064S13042 1995 11 SI MM JOSTA 1995-03-09 03:00:00 TS -13.7383 42.4358 main 194 194 P____P______P_ SH161995 -13.6500 42.5500 52 0 -13.9150 42.2075 3 35 992 -13.6500 42.5500 TC 52 1 117
1995064S13042 1995 11 SI MM JOSTA 1995-03-09 06:00:00 TS -13.7667 42.5000 35 992 reunion main 199 199 O____O______O_ jtwc_sh SH161995 -13.7000 42.6000 55 0 -13.9000 42.3000 3 35 992 3.00000 3.00000 -13.7000 42.6000 TC 55 1 120
1995064S13042 1995 11 SI MM JOSTA 1995-03-09 09:00:00 TS -13.8000 42.5517 main 209 209 P____P______P_ SH161995 -13.7500 42.6425 57 0 -13.8999 42.3700 3 40 988 -13.7500 42.6425 TC 57 1 117
1995064S13042 1995 11 SI MM JOSTA 1995-03-09 12:00:00 TS -13.8333 42.6333 45 985 reunion main 209 209 O____O______O_ jtwc_sh SH161995 -13.8000 42.7000 60 0 -13.9000 42.5000 3 45 985 3.50000 3.50000 -13.8000 42.7000 TC 60 2 105
1995064S13042 1995 11 SI MM JOSTA 1995-03-09 15:00:00 TS -13.8642 42.7925 main 225 225 P____P______P_ SH161995 -13.8500 42.7925 62 0 -13.8926 42.7925 3 51 978 -13.8500 42.7925 TC 62 3 102
1995064S13042 1995 11 SI MM JOSTA 1995-03-09 18:00:00 TS -13.9000 42.9667 58 972 reunion main 246 246 O____O______O_ jtwc_sh SH161995 -13.9000 42.9000 65 1 -13.9000 43.1000 3 58 972 4.50000 4.50000 -13.9000 42.9000 TC 65 3 107
1995064S13042 1995 11 SI MM JOSTA 1995-03-09 21:00:00 TS -13.9475 43.0808 main 256 254 P____P______P_ SH161995 -13.9500 42.9850 65 1 -13.9424 43.2725 3 58 972 -13.9500 42.9850 TC 65 2 114
1995064S13042 1995 11 SI MM JOSTA 1995-03-10 00:00:00 TS -14.0000 43.2000 58 972 reunion main 264 264 O____O______O_ jtwc_sh SH161995 -14.0000 43.1000 65 1 -14.0000 43.4000 3 58 972 4.00000 4.50000 -14.0000 43.1000 TC 65 3 110
1995064S13042 1995 11 SI MM JOSTA 1995-03-10 03:00:00 TS -14.0500 43.3733 main 278 260 P____P______P_ SH161995 -14.0500 43.2775 65 1 -14.0500 43.5650 3 58 972 -14.0500 43.2775 TC 65 4 106
1995064S13042 1995 11 SI MM JOSTA 1995-03-10 06:00:00 TS -14.1000 43.5667 58 972 reunion main 260 257 O____O______O_ jtwc_sh SH161995 -14.1000 43.5000 65 1 -14.1000 43.7000 3 58 972 3.50000 4.50000 -14.1000 43.5000 TC 65 4 106
1995064S13042 1995 11 SI MM JOSTA 1995-03-10 09:00:00 TS -14.1474 43.7225 main 257 239 P____P______P_ SH161995 -14.1500 43.7425 62 0 -14.1422 43.6826 3 54 976 -14.1500 43.7425 TC 62 4 106
1995064S13042 1995 11 SI MM JOSTA 1995-03-10 12:00:00 TS -14.2000 43.9333 50 980 reunion main 239 208 O____O______O_ jtwc_sh SH161995 -14.2000 44.0000 60 0 -14.2000 43.8000 3 50 980 3.50000 4.00000 -14.2000 44.0000 TC 60 6 101
1995064S13042 1995 11 SI MM JOSTA 1995-03-10 15:00:00 TS -14.2568 44.2850 main 208 197 P____P______P_ SH161995 -14.2500 44.2500 60 0 -14.2705 44.3550 3 50 980 -14.2500 44.2500 TC 60 7 101
1995064S13042 1995 11 SI MM JOSTA 1995-03-10 18:00:00 TS -14.3333 44.6667 50 980 reunion main 195 168 O____O______O_ jtwc_sh SH161995 -14.3000 44.5000 60 0 -14.4000 45.0000 3 50 980 4.00000 4.00000 -14.3000 44.5000 TC 60 7 107
1995064S13042 1995 11 SI MM JOSTA 1995-03-10 21:00:00 TS -14.4574 44.9674 main 168 151 P____P______P_ SH161995 -14.3499 44.7425 57 0 -14.6723 45.4173 3 52 977 -14.3499 44.7425 TC 57 6 113
1995064S13042 1995 11 SI MM JOSTA 1995-03-11 00:00:00 TS -14.5667 45.2333 55 975 reunion main 151 144 O____O______O_ jtwc_sh SH161995 -14.4000 45.0000 55 0 -14.9000 45.7000 3 55 975 4.00000 4.00000 -14.4000 45.0000 TC 55 5 105
1995064S13042 1995 11 SI MM JOSTA 1995-03-11 03:00:00 TS -14.5983 45.4934 main 144 131 P____P______P_ SH161995 -14.4500 45.3000 52 0 -14.8949 45.8801 3 55 975 -14.4500 45.3000 TC 52 5 94
1995064S13042 1995 11 SI MM JOSTA 1995-03-11 06:00:00 TS -14.6000 45.7333 55 975 reunion main 131 110 O____O______O_ jtwc_sh SH161995 -14.5000 45.6000 50 0 -14.8000 46.0000 3 55 975 3.50000 4.00000 -14.5000 45.6000 TC 50 5 94
1995064S13042 1995 11 SI MM JOSTA 1995-03-11 09:00:00 TS -14.6291 45.9625 main 110 99 P____P______P_ SH161995 -14.5650 45.8650 47 0 -14.7575 46.1575 3 52 977 -14.5650 45.8650 TC 47 4 95
1995064S13042 1995 11 SI MM JOSTA 1995-03-11 12:00:00 TS -14.6333 46.1667 50 980 reunion main 99 95 O____O______O_ jtwc_sh SH161995 -14.6000 46.1000 45 0 -14.7000 46.3000 3 50 980 3.00000 4.00000 -14.6000 46.1000 TC 45 4 82
1995064S13042 1995 11 SI MM JOSTA 1995-03-11 15:00:00 TS -14.5791 46.3434 main 95 89 P____P______P_ SH161995 -14.5650 46.3150 42 0 -14.6075 46.4000 3 45 985 -14.5650 46.3150 TC 42 3 67
1995064S13042 1995 11 SI MM JOSTA 1995-03-11 18:00:00 TS -14.5000 46.5000 40 990 reunion main 95 85 O____O______O_ jtwc_sh SH161995 -14.5000 46.5000 40 0 -14.5000 46.5000 3 40 990 2.50000 3.50000 -14.5000 46.5000 TC 40 3 64
1995064S13042 1995 11 SI MM JOSTA 1995-03-11 21:00:00 TS -14.4308 46.6625 main 85 77 P____P______P_ SH161995 -14.4500 46.6650 37 0 -14.3925 46.6575 3 37 992 -14.4500 46.6650 TC 37 3 66
1995064S13042 1995 11 SI MM JOSTA 1995-03-12 00:00:00 TS -14.3727 46.8000 35 995 reunion main 77 77 O____O______O_ jtwc_sh SH161995 -14.4000 46.8000 35 0 -14.3000 46.8000 3 35 995 2.00000 3.00000 -14.4000 46.8000 TC 35 3 66
1995064S13042 1995 11 SI MM JOSTA 1995-03-12 03:00:00 TS -14.3280 46.9005 main 77 70 P____P______P_ SH161995 -14.3500 46.9075 32 -1 -14.2400 46.8725 3 31 997 -14.3500 46.9075 TC 32 2 65
1995064S13042 1995 11 SI MM JOSTA 1995-03-12 06:00:00 TS -14.2889 46.9889 28 1000 reunion main 70 64 O____O______O_ jtwc_sh SH161995 -14.3000 47.0000 30 -1 -14.2000 46.9000 6 28 1000 2.00000 2.50000 -14.3000 47.0000 TC 30 2 69
1995064S13042 1995 11 SI MM JOSTA 1995-03-12 09:00:00 TS -14.2500 47.1075 main 64 58 P___________P_ SH161995 -14.2500 47.1075 27 -1 6 -14.2500 47.1075 TC 27 2 67
1995064S13042 1995 11 SI MM JOSTA 1995-03-12 12:00:00 TS -14.2000 47.2000 main 58 48 O___________O_ jtwc_sh SH161995 -14.2000 47.2000 25 -1 -14.2000 47.2000 TC 25 2 56
1995064S13042 1995 11 SI MM JOSTA 1995-03-12 15:00:00 TS -14.1500 47.2600 main 54 54 P___________P_ SH161995 -14.1500 47.2600 22 -1 -14.1500 47.2600 TC 22 1 43
1995064S13042 1995 11 SI MM JOSTA 1995-03-12 18:00:00 TS -14.1000 47.3000 main 54 O___________O_ jtwc_sh SH161995 -14.1000 47.3000 20 -1 -14.1000 47.3000 TC 20 1 43

IBTrACS Databaseについて

本データベースは、米国NOAAが公開する1842年以降の世界の熱帯低気圧のベストトラックデータアーカイブInternational Best Track Archive for Climate Stewardship (IBTrACS)を、ウェブで閲覧しやすい形式に変換したものです。

最終更新日:2021-10-25